Terminal Aerodrome Forecast
Issued by NWS

Home | Current Version | Previous Version | Text Only | Print | Product List | Glossary On
Versions: 1 2 3 4 5 6 7 8 9 10 11 12 13 14 15 16 17 18 19 20 21
000
FTUS46 KSEW 301100 RRA
TAFOLM
TAF
KOLM 301151Z 3012/0112 20006KT P6SM SCT018 SCT050
     FM301400 20006KT P6SM VCSH BKN018 BKN050
     FM301900 24009KT P6SM SCT035 SCT050 PROB30 3021/0102 -SHRA
      BKN035 OVC050
     FM010200 27004KT P6SM SKC
     FM010600 VRB03KT 5SM BR SKC
     FM011000 00000KT 1SM BR VV003=

USA.gov is the U.S. government's official web portal to all federal, state and local government web resources and services.